• Join FlightAware (Why Join?)
  • Login
  • US Flag 
11:22PM EDT


 

Airport Tracker/Info


-or-


 

Live Flight TrackerFlight Track Log ✈ N700XF ✈ 27-May-2013 ✈ KIAD - KAGC

Flight Track Log - Related Links

Times and Time Zones

All times are in EDT time to prevent confusion due to time zone crossing. See the N700XF flight status page for this flight to view local times or setup timezone preferences in your user account.

Time Position Orientation Groundspeed Altitude Reporting Facility
EDT Latitude Longitude Course Direction KTS MPH feet Rate Location/Type
05:56PM 39.0442 -77.6256 307° West 276 318 6,300  Level Washington Center
05:57PM 39.1081 -77.6700 332° Northwest 283 326 10,200 3,540 Climbing Washington Center
05:58PM 39.1867 -77.7072 340° North 277 319 13,500 2,640 Climbing Washington Center
05:59PM 39.2653 -77.7361 344° North 286 329 15,500 1,860 Climbing Washington Center
06:00PM 39.4356 -77.5795 348° North  Level FlightAware Approximate
06:00PM 39.3522 -77.7764 340° North 310 357 17,300  Level Washington Center
06:01PM 39.4431 -77.8167 341° North 326 375 18,000 300 Climbing Washington Center
06:02PM 39.5297 -77.8678 336° Northwest 338 389 18,000  Level Washington Center
06:03PM 39.5694 -77.9714 296° West 311 358 18,000  Level Washington Center
06:05PM 39.6442 -78.2053 293° West 349 402 18,000  Level Cleveland Center
06:06PM 39.6800 -78.3228 292° West 349 402 18,000  Level Cleveland Center
06:07PM 39.7156 -78.4403 292° West 349 402 18,000  Level Cleveland Center
06:08PM 39.7511 -78.5581 291° West 349 402 18,000 -180 Level Cleveland Center
06:09PM 39.7822 -78.6758 289° West 349 402 17,700 -840 Descending Cleveland Center
06:10PM 39.8175 -78.7939 291° West 355 409 16,400 -1,320 Descending Cleveland Center
06:11PM 39.8506 -78.9147 290° West 355 409 15,100 -1,020 Descending Cleveland Center
06:12PM 39.8858 -79.0356 291° West 355 409 14,400 -960 Descending Cleveland Center
06:13PM 39.9183 -79.1458 291° West 343 395 13,200 -1,620 Descending Cleveland Center
06:14PM 39.9533 -79.2750 290° West 335 386 11,200 -1,620 Descending Cleveland Center
06:15PM 39.9897 -79.3692 297° West 343 395 10,000 -960 Descending Cleveland Center
06:15PM 40.0175 -79.4283 302° West 324 373 9,800 -840 Descending Cleveland Center
06:16PM 40.0386 -79.4550 316° Northwest 317 365 9,200 -1,500 Descending Cleveland Center
06:16PM 40.0642 -79.5008 306° West 264 304 8,300 -1,740 Descending Cleveland Center
06:17PM 40.0853 -79.5303 313° West 292 336 7,500 -1,800 Descending Cleveland Center
06:18PM 40.1339 -79.6083 309° West 278 320 5,700 -1,320 Descending Cleveland Center
06:19PM 40.1867 -79.6889 311° West 278 320 4,900 -480 Descending Cleveland Center
06:20PM 40.2433 -79.7561 318° Northwest 278 320 4,800 -1,020 Descending Cleveland Center
06:21PM 40.3000 -79.8100 324° Northwest 266 306 2,900 -1,320 Descending Cleveland Center
06:22PM 40.3442 -79.8558 322° Northwest 238 274 2,200 -720 Descending Cleveland Center
06:23PM 40.3569 -79.9047 289° West 163 188 1,500 -720 Descending Cleveland Center
06:25PM 40.3544 -79.9302 295° West  Level Estimated
06:32PM 40.3544 -79.9302 123° Southeast  Level Estimated